createdAt,value
2018-07-04T00:02:42.881Z,5.00
2018-07-04T00:07:57.552Z,5.00
2018-07-04T00:13:06.320Z,5.00
2018-07-04T00:18:21.197Z,5.00
2018-07-04T00:23:36.079Z,5.00
2018-07-04T00:28:50.932Z,4.75
2018-07-04T00:34:05.700Z,5.00
2018-07-04T00:39:20.752Z,5.00
2018-07-04T00:44:35.479Z,5.40
2018-07-04T00:49:50.389Z,5.00
2018-07-04T00:55:05.160Z,5.00
2018-07-04T01:00:20.013Z,4.00
2018-07-04T01:05:34.751Z,5.00
2018-07-04T01:10:49.861Z,4.00
2018-07-04T01:16:04.873Z,4.00
2018-07-04T01:21:19.750Z,5.00
2018-07-04T01:26:35.503Z,4.25
2018-07-04T01:31:50.401Z,5.00
2018-07-04T01:37:05.115Z,4.00
2018-07-04T01:42:19.842Z,4.50
2018-07-04T01:47:34.840Z,5.00
2018-07-04T01:52:49.658Z,3.80
2018-07-04T01:57:58.521Z,5.40
2018-07-04T02:03:13.404Z,4.20
2018-07-04T02:08:28.266Z,4.00
2018-07-04T02:13:37.296Z,5.50
2018-07-04T02:18:52.060Z,5.00
2018-07-04T02:24:06.972Z,4.00
2018-07-04T02:29:21.827Z,4.25
2018-07-04T02:34:36.827Z,3.60
2018-07-04T02:39:51.983Z,4.50
2018-07-04T02:45:06.929Z,4.40
2018-07-04T02:50:21.537Z,4.00
2018-07-04T02:55:36.424Z,3.80
2018-07-04T03:00:51.392Z,5.00
2018-07-04T03:06:06.183Z,4.25
2018-07-04T03:11:21.206Z,3.75
2018-07-04T03:16:30.047Z,4.25
2018-07-04T03:21:44.888Z,4.25
2018-07-04T03:26:59.761Z,4.80
2018-07-04T03:32:14.779Z,5.50
2018-07-04T03:37:29.805Z,4.00
2018-07-04T03:42:44.765Z,4.60
2018-07-04T03:47:59.824Z,4.00
2018-07-04T03:53:14.792Z,5.00
2018-07-04T03:58:29.641Z,5.00
2018-07-04T04:03:44.564Z,6.00
2018-07-04T04:08:59.357Z,5.50
2018-07-04T04:14:14.035Z,5.50
2018-07-04T04:19:34.185Z,5.00
2018-07-04T04:24:49.022Z,5.75
2018-07-04T04:30:03.755Z,5.00
2018-07-04T04:35:18.709Z,5.80
2018-07-04T04:40:33.755Z,5.25
2018-07-04T04:45:48.616Z,4.50
2018-07-04T04:51:03.416Z,3.80
2018-07-04T04:56:18.183Z,5.20
2018-07-04T05:01:33.597Z,4.75
2018-07-04T05:06:48.480Z,5.20
2018-07-04T05:12:03.289Z,4.80
2018-07-04T05:17:12.299Z,5.40
2018-07-04T05:22:27.137Z,5.00
2018-07-04T05:27:42.193Z,4.00
2018-07-04T05:32:57.113Z,5.00
2018-07-04T05:38:11.997Z,4.25
2018-07-04T05:43:26.852Z,3.60
2018-07-04T05:48:41.604Z,5.00
2018-07-04T05:53:56.314Z,4.60
2018-07-04T05:59:11.208Z,5.50
2018-07-04T06:04:26.026Z,4.25
2018-07-04T06:09:40.813Z,5.25
2018-07-04T06:14:55.614Z,5.40
2018-07-04T06:20:10.437Z,4.00
2018-07-04T06:25:25.264Z,3.80
2018-07-04T06:30:40.241Z,3.50
2018-07-04T06:35:55.014Z,3.50
2018-07-04T06:40:57.536Z,5.00
2018-07-04T06:46:00.031Z,5.00
2018-07-04T06:51:02.524Z,5.00
2018-07-04T06:56:05.451Z,5.20
2018-07-04T07:01:08.257Z,4.00
2018-07-04T07:06:23.096Z,4.80
2018-07-04T07:11:37.925Z,5.00
2018-07-04T07:16:52.884Z,5.00
2018-07-04T07:22:07.620Z,5.00
2018-07-04T07:27:22.285Z,3.60
2018-07-04T07:32:37.277Z,5.50
2018-07-04T07:37:52.102Z,5.00
2018-07-04T07:43:06.807Z,3.50
2018-07-04T07:48:21.584Z,4.00
2018-07-04T07:53:36.451Z,4.20
2018-07-04T07:58:51.573Z,3.60
2018-07-04T08:04:06.517Z,4.00
2018-07-04T08:09:21.521Z,4.00
2018-07-04T08:14:36.444Z,4.25
2018-07-04T08:19:51.388Z,5.00
2018-07-04T08:25:05.996Z,4.50
2018-07-04T08:30:21.464Z,4.00
2018-07-04T08:35:36.276Z,3.00
2018-07-04T08:40:51.436Z,4.50
2018-07-04T08:46:06.466Z,3.20
2018-07-04T08:51:21.657Z,4.00
2018-07-04T08:56:36.804Z,4.00
2018-07-04T09:01:51.823Z,4.25
2018-07-04T09:07:06.637Z,3.00
2018-07-04T09:12:21.405Z,4.20
2018-07-04T09:17:36.562Z,3.00
2018-07-04T09:22:51.301Z,4.00
2018-07-04T09:28:06.188Z,4.00
2018-07-04T09:33:21.112Z,3.00
2018-07-04T09:38:36.373Z,3.50
2018-07-04T09:43:51.266Z,3.25
2018-07-04T09:49:06.069Z,3.25
2018-07-04T09:54:20.804Z,3.00
2018-07-04T09:59:35.715Z,2.60
2018-07-04T10:04:50.553Z,2.60
2018-07-04T10:10:05.341Z,3.00
2018-07-04T10:15:20.068Z,3.20
2018-07-04T10:20:34.816Z,3.00
2018-07-04T10:25:49.614Z,3.00
2018-07-04T10:31:04.484Z,2.80
2018-07-04T10:36:19.391Z,3.00
2018-07-04T10:41:34.203Z,3.00
2018-07-04T10:46:49.024Z,3.25
2018-07-04T10:52:04.344Z,4.00
2018-07-04T10:57:19.192Z,3.00
2018-07-04T11:02:34.164Z,5.50
2018-07-04T11:07:49.093Z,5.25
2018-07-04T11:13:04.156Z,8.75
2018-07-04T11:18:18.976Z,13.75
2018-07-04T11:23:33.869Z,15.75
2018-07-04T11:28:48.740Z,18.00
2018-07-04T11:34:03.964Z,19.00
2018-07-04T11:39:18.873Z,24.50
2018-07-04T11:44:33.837Z,26.50
2018-07-04T11:49:36.372Z,27.00
2018-07-04T11:54:38.943Z,27.00
2018-07-04T11:59:41.512Z,28.50
2018-07-04T12:04:56.407Z,31.50
2018-07-04T12:09:58.918Z,32.25
2018-07-04T12:15:01.435Z,33.00
2018-07-04T12:20:04.266Z,35.50
2018-07-04T12:25:06.852Z,37.80
2018-07-04T12:30:09.420Z,36.00
2018-07-04T12:35:11.937Z,34.00
2018-07-04T12:40:14.713Z,34.00
2018-07-04T12:45:17.177Z,34.00
2018-07-04T12:50:25.590Z,33.00
2018-07-04T12:55:41.808Z,31.60
2018-07-04T13:00:56.549Z,31.60
2018-07-04T13:06:11.376Z,32.20
2018-07-04T13:11:26.353Z,31.60
2018-07-04T13:16:41.144Z,31.00
2018-07-04T13:21:55.752Z,31.50
2018-07-04T13:27:10.621Z,30.00
2018-07-04T13:32:25.514Z,30.60
2018-07-04T13:37:40.433Z,27.40
2018-07-04T13:42:55.266Z,28.00
2018-07-04T13:48:04.077Z,27.00
2018-07-04T13:53:18.996Z,27.00
2018-07-04T13:58:33.920Z,26.50
2018-07-04T14:03:48.883Z,26.00
2018-07-04T14:09:03.886Z,26.00
2018-07-04T14:14:18.504Z,25.80
2018-07-04T14:19:33.388Z,25.25
2018-07-04T14:24:42.115Z,23.00
2018-07-04T14:29:56.877Z,23.50
2018-07-04T14:35:11.573Z,22.80
2018-07-04T14:40:26.971Z,22.40
2018-07-04T14:45:41.972Z,22.00
2018-07-04T14:50:50.744Z,21.00
2018-07-04T14:56:05.841Z,21.50
2018-07-04T15:01:20.891Z,20.60
2018-07-04T15:06:35.841Z,21.00
2018-07-04T15:11:44.806Z,20.25
2018-07-04T15:16:53.604Z,21.00
2018-07-04T15:22:08.725Z,21.20
2018-07-04T15:27:23.756Z,22.00
2018-07-04T15:32:38.663Z,21.00
2018-07-04T15:37:53.449Z,21.00
2018-07-04T15:43:08.289Z,19.20
2018-07-04T15:58:53.570Z,21.20
2018-07-04T15:59:32.718Z,18.60
2018-07-04T16:00:18.242Z,18.00
2018-07-04T16:01:02.971Z,19.20
2018-07-04T16:01:47.701Z,19.40
2018-07-04T16:02:32.323Z,19.00
2018-07-04T16:03:44.864Z,17.00
2018-07-04T16:07:01.344Z,17.75
2018-07-04T16:07:52.604Z,19.00
2018-07-04T16:09:50.410Z,18.60
2018-07-04T16:11:42.150Z,18.60
2018-07-04T16:17:03.697Z,16.60
2018-07-04T16:22:25.217Z,16.40
2018-07-04T16:27:40.500Z,17.00
2018-07-04T16:33:02.275Z,17.25
2018-07-04T16:38:23.575Z,15.50
2018-07-04T16:43:45.070Z,15.50
2018-07-04T16:49:06.514Z,15.75
2018-07-04T16:54:28.084Z,16.75
2018-07-04T16:59:43.537Z,17.40
2018-07-04T17:05:05.105Z,18.75
2018-07-04T17:10:26.528Z,22.00
2018-07-04T17:15:48.152Z,23.00
2018-07-04T17:21:09.470Z,22.75
2018-07-04T17:26:31.058Z,23.25
2018-07-04T17:31:52.993Z,23.00
2018-07-04T17:37:14.413Z,23.00
2018-07-04T17:42:35.892Z,23.00
2018-07-04T17:47:57.451Z,23.00
2018-07-04T17:53:18.879Z,22.50
2018-07-04T17:58:40.223Z,22.50
2018-07-04T18:04:01.606Z,22.25
2018-07-04T18:09:23.136Z,21.25
2018-07-04T18:14:44.462Z,21.00
2018-07-04T18:20:06.348Z,21.00
2018-07-04T18:25:27.789Z,19.50
2018-07-04T18:30:49.326Z,19.80
2018-07-04T18:36:10.702Z,19.00
2018-07-04T18:41:32.205Z,18.25
2018-07-04T18:46:53.713Z,18.75
2018-07-04T18:52:15.185Z,19.00
2018-07-04T18:57:36.818Z,19.00
2018-07-04T19:02:58.293Z,19.00
2018-07-04T19:08:19.707Z,17.75
2018-07-04T19:13:41.415Z,16.50
2018-07-04T19:19:05.286Z,16.00
2018-07-04T19:24:26.794Z,16.75
2018-07-04T19:29:48.348Z,17.25
2018-07-04T19:35:09.893Z,18.00
2018-07-04T19:40:31.239Z,17.33
2018-07-04T19:45:46.966Z,16.75
2018-07-04T19:51:08.512Z,16.50
2018-07-04T19:56:29.885Z,17.25
2018-07-04T20:01:51.199Z,15.60
2018-07-04T20:07:12.485Z,15.00
2018-07-04T20:12:34.065Z,14.00
2018-07-04T20:17:55.542Z,14.00
2018-07-04T20:23:16.914Z,14.00
2018-07-04T20:28:38.250Z,14.50
2018-07-04T20:34:00.039Z,14.00
2018-07-04T20:39:21.543Z,14.50
2018-07-04T20:44:42.927Z,15.00
2018-07-04T20:49:58.179Z,14.20
2018-07-04T20:55:19.724Z,13.20
2018-07-04T21:00:41.780Z,15.50
2018-07-04T21:06:03.294Z,14.00
2018-07-04T21:11:24.689Z,15.00
2018-07-04T21:16:40.615Z,13.50
2018-07-04T21:22:02.051Z,13.75
2018-07-04T21:27:23.486Z,15.60
2018-07-04T21:32:44.785Z,13.75
2018-07-04T21:38:06.222Z,13.75
2018-07-04T21:43:27.537Z,13.75
2018-07-04T21:48:49.228Z,14.00
2018-07-04T21:54:10.749Z,12.75
2018-07-04T21:59:32.577Z,14.25
2018-07-04T22:04:54.066Z,13.75
2018-07-04T22:10:15.334Z,13.25
2018-07-04T22:15:36.714Z,14.25
2018-07-04T22:20:58.166Z,13.00
2018-07-04T22:26:19.656Z,13.00
2018-07-04T22:31:41.010Z,13.25
2018-07-04T22:36:56.440Z,12.00
2018-07-04T22:42:18.124Z,13.75
2018-07-04T22:47:33.607Z,12.25
2018-07-04T22:52:54.994Z,12.00
2018-07-04T22:58:16.477Z,13.00
2018-07-04T23:03:37.822Z,12.25
2018-07-04T23:08:59.392Z,14.00
2018-07-04T23:14:20.845Z,14.25
2018-07-04T23:19:42.271Z,13.50
2018-07-04T23:25:03.598Z,12.50
2018-07-04T23:30:25.417Z,13.20
2018-07-04T23:35:46.766Z,14.00
2018-07-04T23:41:02.428Z,12.40
2018-07-04T23:46:23.984Z,14.00
2018-07-04T23:51:45.421Z,12.00
2018-07-04T23:57:06.678Z,12.50
